Tiempo atmosférico en la estación meteorológica de Amieva, Panizales, Asturias (360 m.)



Fecha
DESCASC
Temp. máxima en grados centígrados (hora)
DESCASC
Temp. mínima en grados centígrados (hora)
DESCASC
Temp. media en grados centígrados
DESCASC
Racha de viento máxima en m/sg (hora)
DESCASC
Velocidad máxima media en intervalos de 10 minutos(hora)
DESCASC
Precipitaciones diarias en mm
DESCASC
Precipitaciones de 00:00 a 06:00 en mm
DESCASC
Precipitaciones de 06:00 a 12:00 en mm
DESCASC
Precipitaciones de 12:00 a 18:00 en mm
DESCASC
Precipitaciones de 18:00 a 24:00 en mm
DESCASC
25-02-2021 16.1 (00:00) 9.1 (22:00) 12.6 9.72 (01:30) 4.17 (00:30) 0.2 0 0 0 0.2
24-02-2021 22 (15:30) 12.8 (08:00) 17.4 17.5 (11:20) 6.39 (02:20) 0 0 0 0 0
23-02-2021 18.8 (15:30) 10.7 (01:40) 14.7 20.56 (11:10) 9.17 (11:00) 0 0 0 0 0
22-02-2021 15.3 (16:00) 4.1 (21:50) 9.7 9.44 (23:40) 5.56 (23:50) 2 1.8 0.2 0 0
21-02-2021 12.7 (00:00) 4.2 (00:00) 8.4 10.28 (08:50) 3.89 (09:40) 20.4 0 0.2 9.6 10.6
20-02-2021 19.4 (12:30) 12.7 (00:00) 16 22.5 (05:50) 11.39 (03:40) 0 0 0 0 0
19-02-2021 16.6 (17:30) 5.4 (00:00) 11 22.5 (11:10) 11.11 (14:00) 0.2 0.2 0 0 0
18-02-2021 16.6 (00:30) 5.5 (00:00) 11.1 15 (04:10) 8.06 (03:50) 0.6 0 0.4 0.2 0
17-02-2021 17 (13:00) 5 (00:00) 11 15.28 (21:40) 7.78 (13:50) 0 0 0 0 0
16-02-2021 18.2 (00:00) 5.6 (00:00) 11.9 18.33 (04:40) 10 (01:30) 0 0 0 0 0
15-02-2021 19.8 (15:40) 15.8 (00:00) 17.8 18.61 (16:30) 10.28 (16:30) 0 0 0 0 0
14-02-2021 19.1 (16:20) 6.5 (00:00) 12.8 16.39 (15:00) 9.17 (10:20) 0.2 0.2 0 0 0
13-02-2021 15.8 (17:10) 4.5 (00:00) 10.2 8.33 (11:40) 3.61 (11:50) 0.8 0 0.8 0 0
12-02-2021 14.3 (17:30) 6.2 (00:00) 10.3 7.5 (06:50) 2.22 (06:50) 13.6 6.8 6.8 0 0
11-02-2021 16.9 (15:20) 6.7 (00:00) 11.8 12.22 (15:00) 6.11 (13:30) 1 0 0.2 0.6 0.2
10-02-2021 15.8 (14:40) 5.6 (00:00) 10.7 7.5 (15:00) 3.89 (00:40) 0.6 0.6 0 0 0
09-02-2021 14.4 (14:50) 8.5 (00:00) 11.4 18.06 (05:20) 9.17 (05:40) 2 0.2 1.8 0 0
08-02-2021 15.1 (13:50) 5.4 (00:00) 10.3 13.89 (00:40) 7.5 (00:50) 0.2 0 0 0.2 0
07-02-2021 11.2 (22:20) 0.8 (00:00) 6 14.44 (22:00) 8.61 (22:00) 2.4 0.2 0 2.2 0
06-02-2021 7.9 (00:30) 3.9 (00:00) 5.9 6.67 (04:10) 3.61 (01:40) 44.8 19.8 11 10.6 3.4
05-02-2021 8.5 (14:40) 7.4 (00:00) 8 3.33 (23:00) 1.39 (23:00) 27.4 0.6 5.2 6 15.6
04-02-2021 13.6 (11:30) 7.6 (00:00) 10.6 10.28 (07:20) 5 (05:30) 0.2 0 0 0 0.2
03-02-2021 18.9 (14:30) 7.6 (00:00) 13.2 17.78 (01:00) 9.72 (00:50) 0.4 0.2 0 0.2 0
02-02-2021 19.2 (16:20) 14.6 (00:00) 16.9 16.39 (15:00) 8.61 (23:59) 0.2 0 0 0.2 0
01-02-2021 20.4 (13:30) 10.6 (00:00) 15.5 13.61 (00:30) 5.83 (22:00) 0 0 0 0 0
31-01-2021 21.4 (15:40) 10.1 (00:00) 15.8 14.44 (23:10) 4.72 (08:10) 0.2 0 0.2 0 0
30-01-2021 16.5 (00:50) 7.6 (00:00) 12 13.33 (03:00) 6.11 (03:00) 3.2 3.2 0 0 0

Gráficas

Temp. máximas Temp. mínimas Temp. medias Precipitaciones Rachas de viento máximas Velocidades máximas media en intervalos de 10 minutos

Datos horarios

Fecha y hora oficial Temperatura (ºC) Velocidad del viento (km/h) Dirección del viento Racha (km/h) Dirección de racha Precipitación (mm) Presión (hPa) Tendencia (hPa) Humedad (%)
2021-02-28 23:00:00 6.9 3 Nordeste 4 Nordeste 0 -- -- 95
2021-02-28 22:00:00 7.1 0 Calma 3 Sudeste 0 -- -- 94
2021-02-28 21:00:00 7.5 0 Calma 4 Nordeste 0 -- -- 90
2021-02-28 20:00:00 8.4 2 Sudoeste 9 Oeste 0 -- -- 88
2021-02-28 19:00:00 8.9 0 Calma 16 Noroeste 0 -- -- 85
2021-02-28 18:00:00 9.4 7 Noroeste 13 Noroeste 0 -- -- 81
2021-02-28 17:00:00 10.2 6 Noroeste 15 Oeste 0 -- -- 76
2021-02-28 16:00:00 11.2 8 Noroeste 38 Oeste 0 -- -- 70
2021-02-28 15:00:00 12.5 9 Noroeste 32 Sudoeste 0 -- -- 63
2021-02-28 14:00:00 12.5 8 Oeste 23 Oeste 0 -- -- 63
2021-02-28 13:00:00 11.2 6 Noroeste 18 Sudoeste 0 -- -- 62
2021-02-28 12:00:00 9.1 5 Sur 11 Sur 0 -- -- 69
2021-02-28 11:00:00 8.2 8 Sur 13 Sudeste 0 -- -- 72
2021-02-28 10:00:00 5.6 2 Sudeste 7 Sudeste 0 -- -- 95
2021-02-28 09:00:00 4.3 0 Calma 5 Norte 0 -- -- 99
2021-02-28 08:00:00 3.7 0 Calma 3 Noroeste 0 -- -- 100
2021-02-28 07:00:00 2.8 0 Calma 3 Norte 0 -- -- 100
2021-02-28 06:00:00 3.2 0 Calma 2 Norte 0 -- -- 99
2021-02-28 05:00:00 4 0 Calma 3 Nordeste 0 -- -- 97
2021-02-28 04:00:00 4.3 0 Calma 7 Nordeste 0 -- -- 96
2021-02-28 03:00:00 5.6 4 Nordeste 10 Nordeste 0 -- -- 92
2021-02-28 02:00:00 6.1 0 Calma 2 Nordeste 0 -- -- 91
2021-02-28 01:00:00 6.2 2 Este 5 Oeste 0 -- -- 89
2021-02-28 00:00:00 6.5 0 Calma 4 Noroeste 0 -- -- 89
2021-02-27 23:00:00 6.7 2 Norte 9 Oeste 0 -- -- 89
2021-02-27 22:00:00 6.9 2 Oeste 5 Noroeste 0 -- -- 90
2021-02-27 21:00:00 7.3 0 Calma 6 Sudeste 0 -- -- 91
2021-02-27 20:00:00 7.6 0 Calma 9 Oeste 0 -- -- 90
2021-02-27 19:00:00 8 7 Oeste 14 Oeste 0 -- -- 89
2021-02-27 18:00:00 8.6 3 Noroeste 13 Noroeste 0 -- -- 90
2021-02-27 17:00:00 9 4 Noroeste 12 Oeste 0 -- -- 92
2021-02-27 16:00:00 9.3 4 Oeste 13 Norte 0 -- -- 91
2021-02-27 15:00:00 9.4 4 Oeste 13 Sudoeste 0 -- -- 92
2021-02-27 14:00:00 -- -- -- -- -- -- -- -- --
2021-02-27 13:00:00 9.8 8 Oeste 13 Oeste 0 -- -- 92
2021-02-27 12:00:00 10.1 5 Sudoeste 11 Oeste 0 -- -- 94
2021-02-27 11:00:00 9.5 0 Calma 3 Sudoeste 0 -- -- 95
2021-02-27 10:00:00 9.3 0 Calma 2 Sur 0 -- -- 97
2021-02-27 09:00:00 8.8 0 Calma 3 Noroeste 0 -- -- 98
2021-02-27 08:00:00 8.6 0 Calma 2 Nordeste 0 -- -- 99
2021-02-27 07:00:00 8.6 0 Calma 2 Norte 0 -- -- 99
2021-02-27 06:00:00 8.7 0 Calma 2 Nordeste 0 -- -- 99
2021-02-27 05:00:00 8.8 0 Calma 3 Este 0 -- -- 99
2021-02-27 04:00:00 9 0 Calma 2 Oeste 0 -- -- 98
2021-02-27 03:00:00 9.1 0 Calma 2 Oeste 0 -- -- 99
2021-02-27 02:00:00 9.1 0 Calma 2 Nordeste 0 -- -- 99
2021-02-27 01:00:00 9.2 0 Calma 0 Calma 0 -- -- 99
2021-02-27 00:00:00 9.3 0 Calma 0 Calma 0 -- -- 99
2021-02-26 23:00:00 9.3 0 Calma 3 Nordeste 0 -- -- 98
2021-02-26 22:00:00 9.3 0 Calma 3 Norte 0 -- -- 98
2021-02-26 21:00:00 9.4 0 Calma 3 Noroeste 0 -- -- 97
2021-02-26 20:00:00 9.6 0 Calma 3 Noroeste 0 -- -- 96
2021-02-26 19:00:00 9.9 0 Calma 9 Oeste 0 -- -- 95
2021-02-26 18:00:00 10.2 4 Oeste 12 Oeste 0 -- -- 92
2021-02-26 17:00:00 10.6 6 Noroeste 14 Norte 0 -- -- 88
2021-02-26 16:00:00 11 6 Oeste 15 Noroeste 0 -- -- 87
2021-02-26 15:00:00 11 5 Oeste 15 Oeste 0 -- -- 89
2021-02-26 14:00:00 10.4 5 Sudoeste 15 Noroeste 0 -- -- 94
2021-02-26 13:00:00 10.4 7 Oeste 14 Oeste 0 -- -- 97
2021-02-26 12:00:00 10.3 5 Oeste 13 Sudoeste 0 -- -- 97
2021-02-26 11:00:00 10.1 2 Sudoeste 7 Sur 0 -- -- 99
2021-02-26 10:00:00 9.5 0 Calma 8 Oeste 0 -- -- 100
2021-02-26 09:00:00 9.3 0 Calma 4 Sudoeste 0 -- -- 100
2021-02-26 08:00:00 9.2 0 Calma 5 Oeste 0 -- -- 100
2021-02-26 07:00:00 9.2 0 Calma 4 Oeste 0.2 -- -- 100
2021-02-26 06:00:00 9.2 0 Calma 4 Noroeste 0 -- -- 100
2021-02-26 05:00:00 9.2 0 Calma 2 Sudeste 0.4 -- -- 100
2021-02-26 04:00:00 9.2 0 Calma 3 Oeste 0.4 -- -- 100
2021-02-26 03:00:00 9.2 0 Calma 3 Oeste 0 -- -- 100
2021-02-26 02:00:00 9.2 2 Noroeste 3 Norte 0 -- -- 100
2021-02-26 01:00:00 9.3 0 Calma 2 Sudoeste 0.2 -- -- 99
2021-02-26 00:00:00 9.3 0 Calma 3 Oeste 0 -- -- 99
2021-02-25 23:00:00 9.2 0 Calma 3 Oeste 0 -- -- 100
2021-02-25 22:00:00 9.1 0 Calma 5 Oeste 0 -- -- 100
2021-02-25 21:00:00 9.2 2 Sudoeste 6 Sudoeste 0.2 -- -- 100
2021-02-25 20:00:00 9.2 0 Calma 5 Oeste 0 -- -- 99
2021-02-25 19:00:00 9.4 4 Oeste 6 Oeste 0 -- -- 97
2021-02-25 18:00:00 9.8 2 Sudoeste 6 Sudoeste 0 -- -- 95
2021-02-25 17:00:00 10.1 3 Sudoeste 7 Oeste 0 -- -- 92
2021-02-25 16:00:00 10.2 3 Sur 10 Oeste 0 -- -- 91
2021-02-25 15:00:00 10.2 4 Sudoeste 10 Oeste 0 -- -- 90
2021-02-25 14:00:00 10.2 4 Sur 9 Oeste 0 -- -- 89
2021-02-25 13:00:00 10 3 Oeste 8 Sudoeste 0 -- -- 90
2021-02-25 12:00:00 9.6 3 Oeste 12 Nordeste 0 -- -- 92
2021-02-25 11:00:00 9.8 0 Calma 5 Noroeste 0 -- -- 94
2021-02-25 10:00:00 10.1 2 Sudoeste 6 Noroeste 0 -- -- 91
2021-02-25 09:00:00 10 2 Norte 6 Oeste 0 -- -- 89
2021-02-25 08:00:00 10.2 0 Calma 7 Oeste 0 -- -- 87
2021-02-25 07:00:00 10.4 0 Calma 9 Noroeste 0 -- -- 84
2021-02-25 06:00:00 10.3 7 Oeste 10 Noroeste 0 -- -- 87
2021-02-25 05:00:00 10.7 6 Noroeste 12 Sudoeste 0 -- -- 83
2021-02-25 04:00:00 11.1 5 Sur 18 Nordeste 0 -- -- 80
2021-02-25 03:00:00 12.9 4 Sudoeste 22 Sudeste 0 -- -- 70
2021-02-25 02:00:00 15.7 12 Sudeste 35 Sur 0 -- -- 53
2021-02-25 01:00:00 16.1 14 Sudeste 31 Este 0 -- -- 50
2021-02-25 00:00:00 16.1 12 Sudeste 27 Sudeste 0 -- -- 51
2021-02-24 23:00:00 16.3 10 Sudeste 21 Sudeste 0 -- -- 50
2021-02-24 22:00:00 16.2 8 Sudeste 27 Nordeste 0 -- -- 48
2021-02-24 21:00:00 15.9 6 Sur 21 Sudeste 0 -- -- 48
2021-02-24 20:00:00 16.4 10 Sudeste 19 Este 0 -- -- 46
2021-02-24 19:00:00 16.9 9 Sur 36 Sur 0 -- -- 45
2021-02-24 18:00:00 18.2 19 Sudeste 39 Sudeste 0 -- -- 40
2021-02-24 17:00:00 20.6 19 Sur 31 Sudeste 0 -- -- 33
2021-02-24 16:00:00 21.4 16 Sudeste 43 Sudeste 0 -- -- 32
2021-02-24 15:00:00 20.6 15 Este 34 Sur 0 -- -- 33
2021-02-24 14:00:00 20.1 19 Sudeste 40 Sudeste 0 -- -- 33
2021-02-24 13:00:00 19.3 18 Sudeste 45 Sur 0 -- -- 33
2021-02-24 12:00:00 18.4 21 Sudeste 63 Sur 0 -- -- 31
2021-02-24 11:00:00 16.8 18 Este 46 Este 0 -- -- 34
2021-02-24 10:00:00 15 23 Este 48 Este 0 -- -- 38
2021-02-24 09:00:00 13.1 19 Sudeste 43 Sur 0 -- -- 45
2021-02-24 08:00:00 12.8 14 Sudeste 40 Sudeste 0 -- -- 47
2021-02-24 07:00:00 12.9 20 Sudeste 39 Sur 0 -- -- 48
2021-02-24 06:00:00 13.2 16 Sudeste 38 Sur 0 -- -- 46
2021-02-24 05:00:00 13.3 15 Sudeste 48 Sur 0 -- -- 46
2021-02-24 04:00:00 13.5 17 Sudeste 46 Este 0 -- -- 46
2021-02-24 03:00:00 14 20 Sudeste 49 Sudeste 0 -- -- 46
2021-02-24 02:00:00 14.2 21 Sudeste 47 Sudeste 0 -- -- 45
2021-02-24 01:00:00 14.5 23 Sudeste 50 Este 0 -- -- 41
2021-02-24 00:00:00 14.8 21 Sudeste 42 Sudeste 0 -- -- 39
2021-02-23 23:00:00 14.7 17 Sudeste 39 Sudeste 0 -- -- 38
2021-02-23 22:00:00 15 17 Sudeste 36 Sur 0 -- -- 27
2021-02-23 21:00:00 14.9 17 Sudeste 37 Sudeste 0 -- -- 28
2021-02-23 20:00:00 15.4 18 Sudeste 39 Sudeste 0 -- -- 26
2021-02-23 19:00:00 15.9 17 Sudeste 45 Sudeste 0 -- -- 28
2021-02-23 18:00:00 17.5 19 Sudeste 58 Sur 0 -- -- 25
2021-02-23 17:00:00 18.3 20 Sudeste 58 Sur 0 -- -- 26
2021-02-23 16:00:00 18.7 21 Sudeste 51 Sur 0 -- -- 27
2021-02-23 15:00:00 18.4 22 Sudeste 55 Sur 0 -- -- 29
2021-02-23 14:00:00 17.5 19 Sudeste 55 Este 0 -- -- 33
2021-02-23 13:00:00 16.6 23 Este 63 Este 0 -- -- 32
2021-02-23 12:00:00 15.4 27 Sudeste 74 Este 0 -- -- 35
2021-02-23 11:00:00 14.2 33 Sudeste 62 Este 0 -- -- 36
2021-02-23 10:00:00 13.1 31 Sudeste 63 Este 0 -- -- 37
2021-02-23 09:00:00 11.5 30 Sudeste 63 Este 0 -- -- 40
2021-02-23 08:00:00 11.4 26 Este 54 Este 0 -- -- 40
2021-02-23 07:00:00 11.5 27 Sudeste 49 Sudeste 0 -- -- 38
2021-02-23 06:00:00 11.5 25 Sudeste 44 Sudeste 0 -- -- 36
2021-02-23 05:00:00 11.4 23 Sudeste 42 Este 0 -- -- 38
2021-02-23 04:00:00 11.3 23 Sudeste 37 Sudeste 0 -- -- 41
2021-02-23 03:00:00 11.1 22 Sudeste 38 Sudeste 0 -- -- 44
2021-02-23 02:00:00 10.9 14 Sudeste 36 Sudeste 0 -- -- 44
2021-02-23 01:00:00 10.9 20 Sudeste 39 Sudeste 0 -- -- 44
2021-02-23 00:00:00 11.1 19 Sudeste 34 Sudeste 0 -- -- 44
2021-02-22 23:00:00 6.4 4 Noroeste 9 Norte 0 -- -- 75
2021-02-22 22:00:00 4.1 3 Noroeste 5 Norte 0 -- -- 93
2021-02-22 21:00:00 5 0 Calma 8 Norte 0 -- -- 91
2021-02-22 20:00:00 6.8 2 Norte 6 Oeste 0 -- -- 85
2021-02-22 19:00:00 8.4 0 Calma 13 Sudoeste 0 -- -- 81
2021-02-22 18:00:00 12.4 8 Sudoeste 19 Noroeste 0 -- -- 65
2021-02-22 17:00:00 13.7 7 Oeste 22 Oeste 0 -- -- 59
2021-02-22 16:00:00 15.3 10 Sudoeste 21 Sudoeste 0 -- -- 54
2021-02-22 15:00:00 14.6 9 Sudoeste 20 Sudoeste 0 -- -- 53
2021-02-22 14:00:00 13.4 8 Sudoeste 20 Sur 0 -- -- 57
2021-02-22 13:00:00 12.1 10 Sur 20 Sudoeste 0 -- -- 66
2021-02-22 12:00:00 10.7 9 Sur 13 Sur 0 -- -- 73
2021-02-22 11:00:00 7.9 3 Sur 8 Sur 0 -- -- 89
2021-02-22 10:00:00 6.4 0 Calma 5 Sudeste 0 -- -- 98
2021-02-22 09:00:00 5.6 2 Nordeste 5 Nordeste 0.2 -- -- 99
2021-02-22 08:00:00 5.3 0 Calma 5 Oeste 0 -- -- 98
2021-02-22 07:00:00 5.4 0 Calma 6 Oeste 0 -- -- 98
2021-02-22 06:00:00 5 2 Este 4 Norte 0 -- -- 99
2021-02-22 05:00:00 4.8 0 Calma 5 Este 0.2 -- -- 99
2021-02-22 04:00:00 4.6 0 Calma 8 Noroeste 0.2 -- -- 98
2021-02-22 03:00:00 4.5 0 Calma 6 Oeste 0.4 -- -- 98
2021-02-22 02:00:00 4.3 3 Sudeste 9 Sudoeste 0.8 -- -- 98
2021-02-22 01:00:00 4.3 4 Oeste 9 Oeste 0.2 -- -- 96
2021-02-22 00:00:00 4.3 3 Sudeste 13 Sudeste 1 -- -- 97
2021-02-21 23:00:00 4.3 5 Sudeste 13 Sudeste 1.2 -- -- 95
2021-02-21 22:00:00 4.4 3 Sudeste 9 Sur 1.6 -- -- 96
2021-02-21 21:00:00 4.5 3 Sudeste 9 Sudeste 1.8 -- -- 97
2021-02-21 20:00:00 4.7 4 Sur 10 Sudeste 2.4 -- -- 96
2021-02-21 19:00:00 5.1 4 Sudeste 14 Sudeste 2.6 -- -- 94
2021-02-21 18:00:00 6.1 3 Este 9 Este 2.4 -- -- 95
2021-02-21 17:00:00 6.9 0 Calma 5 Sudoeste 2.4 -- -- 94
2021-02-21 16:00:00 7.1 4 Oeste 14 Este 2.4 -- -- 96
2021-02-21 15:00:00 7.7 4 Sudoeste 18 Noroeste 1.8 -- -- 91
2021-02-21 14:00:00 9.6 5 Oeste 17 Noroeste 0.6 -- -- 89
2021-02-21 13:00:00 11.5 9 Oeste 29 Nordeste 0 -- -- 83
2021-02-21 12:00:00 11 7 Oeste 26 Oeste 0.2 -- -- 84
2021-02-21 11:00:00 10.4 6 Sudeste 22 Oeste 0 -- -- 87
2021-02-21 10:00:00 10.3 7 Este 31 Norte 0 -- -- 83
2021-02-21 09:00:00 9.8 7 Noroeste 37 Nordeste 0 -- -- 84
2021-02-21 08:00:00 9.6 6 Noroeste 18 Noroeste 0 -- -- 90
2021-02-21 07:00:00 9.8 6 Norte 14 Norte 0 -- -- 89
2021-02-21 06:00:00 9.7 6 Sudoeste 15 Sudoeste 0 -- -- 91
2021-02-21 05:00:00 9.7 5 Sur 14 Sur 0 -- -- 92
2021-02-21 04:00:00 9.6 3 Noroeste 10 Noroeste 0 -- -- 90
2021-02-21 03:00:00 10.2 3 Sudeste 19 Nordeste 0 -- -- 88
2021-02-21 02:00:00 11.9 10 Noroeste 27 Noroeste 0 -- -- 71
2021-02-21 01:00:00 9.9 3 Nordeste 13 Nordeste 0 -- -- 76
2021-02-21 00:00:00 12.7 6 Noroeste 14 Norte 0 -- -- 55
2021-02-20 23:00:00 13.7 4 Noroeste 27 Sudeste 0 -- -- 53
2021-02-20 22:00:00 14.9 10 Este 46 Sudoeste 0 -- -- 47
2021-02-20 21:00:00 15.5 18 Sur 42 Sudeste 0 -- -- 49
2021-02-20 20:00:00 15.8 14 Sur 41 Sudoeste 0 -- -- 44
2021-02-20 19:00:00 14.7 12 Sudeste 62 Sudeste 0 -- -- 49
2021-02-20 18:00:00 13.9 23 Sudeste 48 Sudeste 0 -- -- 57
2021-02-20 17:00:00 16.3 22 Sudeste 57 Sudeste 0 -- -- 47
2021-02-20 16:00:00 16.8 25 Sudeste 60 Sudeste 0 -- -- 45
2021-02-20 15:00:00 17.2 27 Sudeste 70 Este 0 -- -- 41
2021-02-20 14:00:00 17.4 32 Sudeste 65 Sudeste 0 -- -- 39
2021-02-20 13:00:00 18.3 36 Sudeste 68 Sudeste 0 -- -- 33
2021-02-20 12:00:00 18.8 32 Sudeste 64 Sudeste 0 -- -- 29
2021-02-20 11:00:00 17.7 33 Sudeste 59 Sudeste 0 -- -- 30
2021-02-20 10:00:00 16.3 27 Sudeste 56 Sudeste 0 -- -- 35
2021-02-20 09:00:00 14.9 34 Sudeste 72 Sudeste 0 -- -- 39
2021-02-20 08:00:00 15 35 Sudeste 73 Sudeste 0 -- -- 38
2021-02-20 07:00:00 15.1 35 Sudeste 66 Sudeste 0 -- -- 38
2021-02-20 06:00:00 14.9 37 Sudeste 81 Este 0 -- -- 41
2021-02-20 05:00:00 15.3 39 Sudeste 72 Este 0 -- -- 42
2021-02-20 04:00:00 15.5 36 Sudeste 78 Este 0 -- -- 48
2021-02-20 03:00:00 15.4 30 Sudeste 72 Sudeste 0 -- -- 52
2021-02-20 02:00:00 15.7 33 Sudeste 79 Sudeste 0 -- -- 49
2021-02-20 01:00:00 15.4 32 Sudeste 77 Sudeste 0 -- -- 50
2021-02-20 00:00:00 15.5 32 Sudeste 67 Este 0 -- -- 49
2021-02-19 23:00:00 15.5 29 Sudeste 67 Este 0 -- -- 50
2021-02-19 22:00:00 15.5 32 Sudeste 69 Sudeste 0 -- -- 48
2021-02-19 21:00:00 15.6 31 Sudeste 70 Sudeste 0 -- -- 45
2021-02-19 20:00:00 15.7 31 Sudeste 65 Sudeste 0 -- -- 44
2021-02-19 19:00:00 16.1 27 Sudeste 59 Sur 0 -- -- 43
2021-02-19 18:00:00 16.4 30 Sudeste 62 Sudeste 0 -- -- 42
2021-02-19 17:00:00 16.4 29 Sudeste 58 Sur 0 -- -- 40
2021-02-19 16:00:00 16.3 21 Sudeste 58 Este 0 -- -- 43
2021-02-19 15:00:00 16.3 30 Sur 69 Sudeste 0 -- -- 44
2021-02-19 14:00:00 15.9 40 Sudeste 66 Sur 0 -- -- 50
2021-02-19 13:00:00 15.6 36 Sudeste 75 Sudeste 0 -- -- 50
2021-02-19 12:00:00 16 26 Sudeste 81 Este 0 -- -- 49
2021-02-19 11:00:00 15.7 26 Este 57 Sudeste 0 -- -- 50
2021-02-19 10:00:00 15.5 25 Sudeste 51 Este 0 -- -- 50
2021-02-19 09:00:00 14.8 24 Este 54 Nordeste 0 -- -- 50
2021-02-19 08:00:00 14.6 26 Este 50 Este 0 -- -- 50
2021-02-19 07:00:00 14.5 27 Sudeste 57 Sudeste 0 -- -- 48
2021-02-19 06:00:00 14.7 25 Sudeste 48 Sudeste 0.2 -- -- 49
2021-02-19 05:00:00 14.3 19 Sudeste 53 Sudeste 0 -- -- 49
2021-02-19 04:00:00 14 20 Sudeste 48 Sudeste 0 -- -- 48
2021-02-19 03:00:00 13.4 21 Sudeste 49 Sudeste 0 -- -- 52
2021-02-19 02:00:00 10.4 10 Sur 31 Este 0 -- -- 70
2021-02-19 01:00:00 6.1 5 Noroeste 10 Noroeste 0 -- -- 99
2021-02-19 00:00:00 5.5 3 Nordeste 6 Norte 0 -- -- 98
2021-02-18 23:00:00 6.1 0 Calma 4 Norte 0 -- -- 97
2021-02-18 22:00:00 6.5 0 Calma 5 Norte 0 -- -- 96
2021-02-18 21:00:00 6.8 4 Norte 6 Norte 0 -- -- 93
2021-02-18 20:00:00 8.9 0 Calma 6 Norte 0 -- -- 90
2021-02-18 19:00:00 9.3 4 Noroeste 11 Norte 0 -- -- 87
2021-02-18 18:00:00 9.7 4 Norte 12 Nordeste 0 -- -- 86
2021-02-18 17:00:00 9.9 4 Oeste 10 Oeste 0 -- -- 90
2021-02-18 16:00:00 10.4 4 Oeste 11 Norte 0.2 -- -- 88
2021-02-18 15:00:00 11.1 4 Sur 14 Oeste 0 -- -- 83
2021-02-18 14:00:00 10.7 3 Sur 7 Sudoeste 0 -- -- 87
2021-02-18 13:00:00 10.7 4 Oeste 13 Oeste 0 -- -- 88
2021-02-18 12:00:00 11 5 Nordeste 22 Noroeste 0.4 -- -- 89
2021-02-18 11:00:00 11.7 5 Sur 14 Sudoeste 0 -- -- 83
2021-02-18 10:00:00 12.7 5 Sudoeste 26 Oeste 0 -- -- 75
2021-02-18 09:00:00 14.5 11 Sur 38 Sudeste 0 -- -- 56
2021-02-18 08:00:00 14.6 15 Sudeste 34 Sur 0 -- -- 54
2021-02-18 07:00:00 15.2 16 Sudeste 46 Sudeste 0 -- -- 50
2021-02-18 06:00:00 15.5 23 Sur 54 Sudeste 0 -- -- 48
2021-02-18 05:00:00 15.8 22 Sudeste 54 Este 0 -- -- 48
2021-02-18 04:00:00 16.1 26 Sudeste 51 Sur 0 -- -- 48
2021-02-18 03:00:00 16.2 22 Sudeste 41 Este 0 -- -- 50
2021-02-18 02:00:00 16.4 26 Sudeste 44 Sudeste 0 -- -- 50
2021-02-18 01:00:00 16.4 16 Sudeste 37 Sudeste 0 -- -- 50
2021-02-18 00:00:00 16.5 17 Sudeste 33 Sudeste 0 -- -- 52
2021-02-17 23:00:00 15.7 22 Sudeste 38 Sudeste 0 -- -- 58
2021-02-17 22:00:00 15.9 18 Sudeste 55 Sur 0 -- -- 55
2021-02-17 21:00:00 15.8 25 Sudeste 54 Sudeste 0 -- -- 54
2021-02-17 20:00:00 15.6 19 Sudeste 49 Este 0 -- -- 56
2021-02-17 19:00:00 15.6 18 Sudeste 41 Este 0 -- -- 53
2021-02-17 18:00:00 15.9 25 Sudeste 49 Sur 0 -- -- 51
2021-02-17 17:00:00 16.5 15 Sudeste 33 Este 0 -- -- 45
2021-02-17 16:00:00 16 20 Sudeste 40 Sudeste 0 -- -- 46
2021-02-17 15:00:00 16 19 Sudeste 41 Este 0 -- -- 43
2021-02-17 14:00:00 15.9 22 Sur 52 Sudoeste 0 -- -- 45
2021-02-17 13:00:00 17 19 Sudeste 42 Sur 0 -- -- 43
2021-02-17 12:00:00 16 21 Sudeste 48 Sudoeste 0 -- -- 45
2021-02-17 11:00:00 14.9 19 Sudeste 40 Sudeste 0 -- -- 49
2021-02-17 10:00:00 13.4 14 Sudeste 33 Este 0 -- -- 52
2021-02-17 09:00:00 11.4 15 Sudeste 29 Este 0 -- -- 57
2021-02-17 08:00:00 9.5 12 Sudeste 28 Este 0 -- -- 64
2021-02-17 07:00:00 10.5 13 Este 32 Sudeste 0 -- -- 61
2021-02-17 06:00:00 5.5 4 Norte 12 Oeste 0 -- -- 82
2021-02-17 05:00:00 5.4 3 Nordeste 9 Nordeste 0 -- -- 85
2021-02-17 04:00:00 5.6 3 Norte 9 Sudoeste 0 -- -- 85
2021-02-17 03:00:00 6 0 Calma 7 Sudoeste 0 -- -- 84
2021-02-17 02:00:00 6.4 3 Este 11 Norte 0 -- -- 85
2021-02-17 01:00:00 5 0 Calma 4 Norte 0 -- -- 90
2021-02-17 00:00:00 5.6 0 Calma 4 Nordeste 0 -- -- 87
2021-02-16 23:00:00 6.4 2 Noroeste 4 Nordeste 0 -- -- 89
2021-02-16 22:00:00 7.3 0 Calma 4 Nordeste 0 -- -- 91
2021-02-16 21:00:00 8.3 0 Calma 4 Sudoeste 0 -- -- 88
2021-02-16 20:00:00 9.8 2 Este 11 Nordeste 0 -- -- 84
2021-02-16 19:00:00 12 0 Calma 12 Norte 0 -- -- 75
2021-02-16 18:00:00 13.9 4 Noroeste 16 Oeste 0 -- -- 67
2021-02-16 17:00:00 16.6 5 Norte 23 Sur 0 -- -- 61
2021-02-16 16:00:00 17.1 9 Sur 14 Sur 0 -- -- 58
2021-02-16 15:00:00 15.2 8 Noroeste 21 Sudoeste 0 -- -- 64
2021-02-16 14:00:00 15.7 8 Sudeste 24 Nordeste 0 -- -- 60
2021-02-16 13:00:00 14.1 8 Norte 19 Nordeste 0 -- -- 66
2021-02-16 12:00:00 14.8 7 Oeste 37 Sur 0 -- -- 61
2021-02-16 11:00:00 15.5 16 Sudeste 40 Sudeste 0 -- -- 47
2021-02-16 10:00:00 15.7 27 Sudeste 44 Sur 0 -- -- 44
2021-02-16 09:00:00 15 18 Sudeste 49 Sur 0 -- -- 47
2021-02-16 08:00:00 15.3 22 Sudeste 57 Este 0 -- -- 47
2021-02-16 07:00:00 15.6 26 Sudeste 57 Sudeste 0 -- -- 49
2021-02-16 06:00:00 15.8 26 Sudeste 55 Este 0 -- -- 49
2021-02-16 05:00:00 16 27 Sudeste 66 Sudeste 0 -- -- 49
2021-02-16 04:00:00 16.3 24 Sudeste 54 Sudeste 0 -- -- 47
2021-02-16 03:00:00 16.9 30 Sudeste 61 Sudeste 0 -- -- 45
2021-02-16 02:00:00 17.5 30 Sudeste 64 Sudeste 0 -- -- 42
2021-02-16 01:00:00 17.9 33 Sudeste 59 Este 0 -- -- 41
2021-02-16 00:00:00 18.2 32 Sudeste 65 Sudeste 0 -- -- 40
2021-02-15 23:00:00 18.3 23 Sudeste 53 Sudeste 0 -- -- 40
2021-02-15 22:00:00 18.4 26 Sudeste 54 Este 0 -- -- 38
2021-02-15 21:00:00 18.1 19 Sudeste 52 Sudeste 0 -- -- 38
2021-02-15 20:00:00 18.8 24 Sudeste 47 Sudeste 0 -- -- 33
2021-02-15 19:00:00 18.7 23 Sudeste 47 Sudeste 0 -- -- 36
2021-02-15 18:00:00 19.2 24 Sudeste 48 Sur 0 -- -- 37
2021-02-15 17:00:00 19.4 28 Sudeste 67 Sur 0 -- -- 36
2021-02-15 16:00:00 19.3 26 Sudeste 46 Sudeste 0 -- -- 37
2021-02-15 15:00:00 19.1 22 Este 48 Este 0 -- -- 35
2021-02-15 14:00:00 19.7 21 Este 47 Este 0 -- -- 35
2021-02-15 13:00:00 18.4 19 Este 43 Este 0 -- -- 39
2021-02-15 12:00:00 17.5 24 Sudeste 49 Sudeste 0 -- -- 40
2021-02-15 11:00:00 16.3 26 Sudeste 52 Sudeste 0 -- -- 45
2021-02-15 10:00:00 15.8 27 Sudeste 52 Sudeste 0 -- -- 44
2021-02-15 09:00:00 16.3 22 Sudeste 50 Sudeste 0 -- -- 39
2021-02-15 08:00:00 16.9 24 Sudeste 47 Sudeste 0 -- -- 34
2021-02-15 07:00:00 17 25 Sudeste 51 Sudeste 0 -- -- 33
2021-02-15 06:00:00 17 22 Sudeste 48 Sudeste 0 -- -- 36
2021-02-15 05:00:00 16.7 22 Este 39 Sudeste 0 -- -- 41
2021-02-15 04:00:00 17.3 14 Sudeste 44 Sudeste 0 -- -- 37
2021-02-15 03:00:00 17.1 18 Sudeste 52 Sudeste 0 -- -- 41
2021-02-15 02:00:00 17.1 25 Sudeste 57 Sudeste 0 -- -- 46
2021-02-15 01:00:00 17.2 23 Sudeste 51 Sudeste 0 -- -- 48
2021-02-15 00:00:00 17 18 Sudeste 55 Sudeste 0 -- -- 49
2021-02-14 23:00:00 16.5 20 Sudeste 49 Sur 0 -- -- 50
2021-02-14 22:00:00 16.4 28 Sudeste 51 Este 0 -- -- 49
2021-02-14 21:00:00 16 29 Sudeste 50 Este 0 -- -- 50
2021-02-14 20:00:00 16.1 20 Sudeste 44 Este 0 -- -- 51
2021-02-14 19:00:00 16.9 24 Este 51 Este 0 -- -- 48
2021-02-14 18:00:00 17.8 23 Sudeste 54 Este 0 -- -- 46
2021-02-14 17:00:00 18.6 24 Sudeste 54 Sudeste 0 -- -- 45
2021-02-14 16:00:00 18.6 27 Este 49 Sudeste 0 -- -- 47
2021-02-14 15:00:00 17.7 30 Este 59 Sudeste 0 -- -- 49
2021-02-14 14:00:00 17.7 25 Sudeste 57 Sur 0 -- -- 49
2021-02-14 13:00:00 17.9 23 Sudeste 48 Sudeste 0 -- -- 49
2021-02-14 12:00:00 17.3 30 Sudeste 47 Sudeste 0 -- -- 50
2021-02-14 11:00:00 15.8 23 Sudeste 57 Sudeste 0 -- -- 53
2021-02-14 10:00:00 15.4 31 Sudeste 49 Sudeste 0 -- -- 53
2021-02-14 09:00:00 14.6 23 Sudeste 43 Sudeste 0 -- -- 55
2021-02-14 08:00:00 14.1 22 Sudeste 44 Sudeste 0 -- -- 57
2021-02-14 07:00:00 14.1 23 Sudeste 42 Sudeste 0 -- -- 57
2021-02-14 06:00:00 13.8 22 Sudeste 46 Sudeste 0.2 -- -- 59
2021-02-14 05:00:00 12.5 14 Sudeste 36 Sudeste 0 -- -- 66
2021-02-14 04:00:00 8.3 6 Sudeste 16 Este 0 -- -- 85
2021-02-14 03:00:00 6.6 0 Calma 6 Noroeste 0 -- -- 92
2021-02-14 02:00:00 7.1 0 Calma 6 Nordeste 0 -- -- 88
2021-02-14 01:00:00 7.3 0 Calma 5 Oeste 0 -- -- 89
2021-02-14 00:00:00 7.8 4 Sudoeste 13 Sudoeste 0 -- -- 91
2021-02-13 23:00:00 7.1 0 Calma 4 Norte 0 -- -- 94
2021-02-13 22:00:00 8.2 0 Calma 8 Noroeste 0 -- -- 90
2021-02-13 21:00:00 11.2 5 Oeste 22 Sur 0 -- -- 80
2021-02-13 20:00:00 9.6 4 Sudeste 7 Sur 0 -- -- 91
2021-02-13 19:00:00 10.7 2 Nordeste 7 Oeste 0 -- -- 85
2021-02-13 18:00:00 14.2 0 Calma 6 Sudoeste 0 -- -- 74
2021-02-13 17:00:00 15.2 0 Calma 8 Sur 0 -- -- 71
2021-02-13 16:00:00 14.6 0 Calma 6 Sudeste 0 -- -- 70
2021-02-13 15:00:00 14.4 4 Sur 20 Sur 0 -- -- 68
2021-02-13 14:00:00 13.2 10 Sur 22 Sur 0 -- -- 70
2021-02-13 13:00:00 11.8 10 Sur 26 Sudeste 0 -- -- 74
2021-02-13 08:00:00 -- -- -- -- -- -- -- -- --
2021-02-13 07:00:00 4.6 0 Calma 6 Noroeste 0 -- -- 92
2021-02-13 06:00:00 5 2 Noroeste 7 Noroeste 0 -- -- 93
2021-02-13 05:00:00 5.3 0 Calma 4 Sudeste 0 -- -- 94
2021-02-13 04:00:00 4.8 0 Calma 4 Oeste 0 -- -- 95
2021-02-13 03:00:00 5.1 2 Norte 5 Nordeste 0 -- -- 92
2021-02-13 02:00:00 5.9 2 Nordeste 5 Norte 0 -- -- 90
2021-02-13 01:00:00 6.8 2 Noroeste 9 Sudoeste 0 -- -- 87
2021-02-13 00:00:00 6.6 3 Este 12 Sur 0 -- -- 90
2021-02-12 23:00:00 6.5 2 Sudoeste 6 Sur 0 -- -- 89
2021-02-12 22:00:00 6.8 2 Sur 8 Sur 0 -- -- 93
2021-02-12 21:00:00 7.1 0 Calma 6 Sudoeste 0 -- -- 95
2021-02-12 20:00:00 7.9 3 Noroeste 4 Norte 0 -- -- 94
2021-02-12 19:00:00 9.9 0 Calma 5 Noroeste 0 -- -- 89
2021-02-12 18:00:00 13.6 0 Calma 8 Sudoeste 0 -- -- 77
2021-02-12 17:00:00 13.6 0 Calma 12 Sudoeste 0 -- -- 75
2021-02-12 16:00:00 12.6 4 Nordeste 14 Nordeste 0 -- -- 76
2021-02-12 15:00:00 13.2 2 Sudoeste 9 Nordeste 0 -- -- 79
2021-02-12 14:00:00 12.8 5 Norte 10 Norte 0 -- -- 75
2021-02-12 13:00:00 11.6 3 Norte 9 Norte 0 -- -- 89
2021-02-12 12:00:00 10.9 5 Nordeste 9 Norte 0 -- -- 86
2021-02-12 11:00:00 9.8 3 Norte 10 Oeste 0.8 -- -- 96
2021-02-12 10:00:00 9.5 2 Oeste 11 Nordeste 0.2 -- -- 97
2021-02-12 09:00:00 9.5 0 Calma 11 Este 2.4 -- -- 99
2021-02-12 08:00:00 9.6 3 Este 12 Norte 1.2 -- -- 97
2021-02-12 07:00:00 10.6 6 Nordeste 27 Oeste 2.2 -- -- 90
2021-02-12 06:00:00 10.3 4 Nordeste 10 Noroeste 0 -- -- 99
2021-02-12 05:00:00 10.2 3 Este 5 Oeste 0.4 -- -- 99
2021-02-12 04:00:00 10.2 2 Sudeste 5 Sudeste 1.2 -- -- 99
2021-02-12 03:00:00 10.3 0 Calma 3 Este 2.6 -- -- 97
2021-02-12 02:00:00 10.6 2 Nordeste 6 Este 2.4 -- -- 96
2021-02-12 01:00:00 11.5 4 Norte 10 Norte 0.2 -- -- 90
2021-02-12 00:00:00 10.9 4 Noroeste 8 Oeste 0 -- -- 91
2021-02-11 23:00:00 11.9 6 Noroeste 11 Noroeste 0.2 -- -- 86
2021-02-11 22:00:00 14.2 3 Sur 20 Sudeste 0 -- -- 72
2021-02-11 21:00:00 15.4 5 Sudeste 22 Este 0 -- -- 65
2021-02-11 20:00:00 15.7 11 Este 32 Sudeste 0 -- -- 62
2021-02-11 19:00:00 15.8 15 Sudeste 36 Sudeste 0 -- -- 60
2021-02-11 18:00:00 15.7 14 Sudeste 35 Este 0 -- -- 59
2021-02-11 17:00:00 15.6 17 Sudeste 43 Sur 0 -- -- 58
2021-02-11 16:00:00 16.5 21 Sudeste 35 Sudeste 0 -- -- 57
2021-02-11 15:00:00 16.8 21 Sudeste 44 Este 0 -- -- 58
2021-02-11 14:00:00 15.8 15 Sudeste 37 Sudeste 0 -- -- 62
2021-02-11 13:00:00 13.6 17 Sudeste 31 Sudeste 0.6 -- -- 74
2021-02-11 12:00:00 13.1 3 Oeste 40 Sudeste 0.2 -- -- 78
2021-02-11 11:00:00 15.8 18 Sudeste 35 Sur 0 -- -- 54
2021-02-11 10:00:00 14 3 Sudoeste 35 Sudeste 0 -- -- 61
2021-02-11 09:00:00 13.3 10 Sudeste 31 Sudeste 0 -- -- 62
2021-02-11 08:00:00 12.4 12 Sudeste 30 Sudeste 0 -- -- 66
2021-02-11 07:00:00 9.2 8 Sudeste 24 Sudeste 0 -- -- 82
2021-02-11 06:00:00 7.5 3 Norte 11 Este 0 -- -- 90
2021-02-11 05:00:00 8 3 Sudeste 11 Noroeste 0 -- -- 89
2021-02-11 04:00:00 7.6 4 Norte 9 Nordeste 0 -- -- 90
2021-02-11 03:00:00 7.6 2 Sudeste 7 Este 0 -- -- 92
2021-02-11 02:00:00 7.2 0 Calma 5 Noroeste 0 -- -- 93
2021-02-11 01:00:00 7.2 3 Noroeste 6 Noroeste 0 -- -- 93
2021-02-11 00:00:00 6.8 0 Calma 3 Nordeste 0 -- -- 94
2021-02-10 23:00:00 6.6 0 Calma 4 Noroeste 0 -- -- 94
2021-02-10 22:00:00 6.8 0 Calma 3 Nordeste 0 -- -- 91
2021-02-10 21:00:00 7.3 0 Calma 3 Este 0 -- -- 90
2021-02-10 20:00:00 8.6 0 Calma 9 Oeste 0 -- -- 84
2021-02-10 19:00:00 9.9 3 Sur 11 Este 0 -- -- 76
2021-02-10 18:00:00 12.2 4 Noroeste 19 Sudoeste 0 -- -- 62
2021-02-10 17:00:00 14.4 9 Oeste 19 Oeste 0 -- -- 55
2021-02-10 16:00:00 14.6 6 Oeste 25 Oeste 0 -- -- 55
2021-02-10 15:00:00 15.3 9 Nordeste 27 Norte 0 -- -- 50
2021-02-10 14:00:00 14.9 7 Sur 22 Sudoeste 0 -- -- 48
2021-02-10 13:00:00 13.2 5 Sudoeste 17 Sur 0 -- -- 56
2021-02-10 12:00:00 12.3 4 Oeste 26 Oeste 0 -- -- 55
2021-02-10 11:00:00 10 4 Este 21 Este 0 -- -- 62
2021-02-10 10:00:00 8.9 4 Nordeste 24 Sudoeste 0 -- -- 68
2021-02-10 09:00:00 7.9 4 Sudeste 20 Sudeste 0 -- -- 69
2021-02-10 08:00:00 6.7 5 Nordeste 21 Sudeste 0 -- -- 81
2021-02-10 07:00:00 6.3 4 Este 16 Este 0 -- -- 83
2021-02-10 06:00:00 6.2 4 Nordeste 12 Oeste 0.2 -- -- 88
2021-02-10 05:00:00 6.1 7 Norte 14 Nordeste 0 -- -- 89
2021-02-10 04:00:00 5.6 4 Este 9 Sur 0.2 -- -- 91
2021-02-10 03:00:00 6.6 2 Norte 11 Sudeste 0.2 -- -- 89
2021-02-10 02:00:00 8.4 4 Sudeste 21 Sudeste 0 -- -- 68
2021-02-10 01:00:00 9.1 13 Sudeste 26 Sur 0 -- -- 59
2021-02-10 00:00:00 8.8 11 Sudeste 30 Este 0 -- -- 59
2021-02-09 23:00:00 9.1 17 Este 37 Este 0 -- -- 60
2021-02-09 22:00:00 9.1 19 Sudeste 37 Sudeste 0 -- -- 62
2021-02-09 21:00:00 8.8 16 Sudeste 35 Este 0 -- -- 67
2021-02-09 20:00:00 9.1 10 Sudeste 32 Sudeste 0 -- -- 65
2021-02-09 19:00:00 10.3 17 Sudeste 32 Sudeste 0 -- -- 56
2021-02-09 18:00:00 11.4 18 Sudeste 37 Sudeste 0 -- -- 48
2021-02-09 17:00:00 13.8 16 Sur 42 Sur 0 -- -- 39
2021-02-09 16:00:00 13.7 23 Sudeste 41 Sudeste 0 -- -- 42
2021-02-09 15:00:00 14.3 21 Sudeste 35 Sudeste 0 -- -- 46
2021-02-09 14:00:00 13 7 Sudeste 41 Sudeste 0 -- -- 48
2021-02-09 13:00:00 10.7 26 Sudeste 54 Sudeste 0 -- -- 60
2021-02-09 12:00:00 9 5 Este 19 Oeste 1.8 -- -- 91
2021-02-09 11:00:00 11.3 6 Sudoeste 36 Este 0 -- -- 68
2021-02-09 10:00:00 11.3 18 Sudeste 47 Este 0 -- -- 61
2021-02-09 09:00:00 11.1 22 Sudeste 60 Este 0 -- -- 61
2021-02-09 08:00:00 11.3 24 Sudeste 63 Sudeste 0 -- -- 59
2021-02-09 07:00:00 10.9 22 Sudeste 55 Sur 0 -- -- 59
2021-02-09 06:00:00 10.7 23 Sudeste 65 Sur 0 -- -- 59
2021-02-09 05:00:00 10.9 28 Sur 57 Sudeste 0 -- -- 59
2021-02-09 04:00:00 10.2 16 Sudeste 35 Sur 0.2 -- -- 64
2021-02-09 03:00:00 10.1 11 Sudeste 39 Sudeste 0 -- -- 72
2021-02-09 02:00:00 11.4 20 Sudeste 38 Este 0 -- -- 52
2021-02-09 01:00:00 10.6 12 Sudeste 35 Este 0 -- -- 61
2021-02-09 00:00:00 8.5 7 Sudeste 26 Sudeste 0 -- -- 71
2021-02-08 23:00:00 7.2 0 Calma 6 Noroeste 0 -- -- 84
2021-02-08 22:00:00 6.9 0 Calma 9 Sur 0 -- -- 84
2021-02-08 21:00:00 8.1 5 Este 22 Este 0 -- -- 83
2021-02-08 20:00:00 7.1 3 Sudeste 11 Sudoeste 0 -- -- 88
2021-02-08 19:00:00 8.9 3 Nordeste 13 Sur 0 -- -- 80
2021-02-08 18:00:00 9.9 3 Este 17 Sudoeste 0.2 -- -- 82
2021-02-08 17:00:00 12.1 0 Calma 10 Sur 0 -- -- 65
2021-02-08 16:00:00 14 7 Sudoeste 13 Sudoeste 0 -- -- 59
2021-02-08 15:00:00 12.5 4 Sur 27 Sur 0 -- -- 63
2021-02-08 14:00:00 15 15 Sur 33 Sudeste 0 -- -- 45
2021-02-08 13:00:00 14.6 17 Sudeste 31 Sudeste 0 -- -- 48
2021-02-08 12:00:00 13.5 15 Sudeste 35 Sudeste 0 -- -- 50
2021-02-08 11:00:00 10.7 17 Sudeste 35 Este 0 -- -- 56
2021-02-08 10:00:00 10.1 16 Sudeste 31 Este 0 -- -- 59
2021-02-08 09:00:00 7.7 9 Sudeste 20 Sudeste 0 -- -- 71
2021-02-08 08:00:00 6 2 Nordeste 9 Nordeste 0 -- -- 83
2021-02-08 07:00:00 7.5 2 Sudeste 8 Nordeste 0 -- -- 77
2021-02-08 06:00:00 8.9 8 Norte 23 Sudeste 0 -- -- 70
2021-02-08 05:00:00 10.4 15 Este 32 Este 0 -- -- 62
2021-02-08 04:00:00 10.5 15 Sudeste 30 Sudeste 0 -- -- 61
2021-02-08 03:00:00 10.8 18 Sudeste 42 Sudeste 0 -- -- 60
2021-02-08 02:00:00 10.9 18 Sudeste 48 Sudeste 0 -- -- 60
2021-02-08 01:00:00 10.3 24 Sudeste 50 Este 0 -- -- 64
2021-02-08 00:00:00 10.2 20 Sudeste 49 Sudeste 0 -- -- 66
2021-02-07 23:00:00 10.9 23 Sudeste 46 Sudeste 0 -- -- 63
2021-02-07 22:00:00 10.9 31 Sudeste 52 Sudeste 0 -- -- 61
2021-02-07 21:00:00 10.5 21 Sudeste 49 Sur 0 -- -- 63
2021-02-07 20:00:00 9.5 26 Sudeste 50 Sudeste 0 -- -- 66
2021-02-07 19:00:00 8.9 24 Sudeste 40 Sudeste 0 -- -- 71
2021-02-07 18:00:00 8.1 22 Sudeste 43 Este 0.6 -- -- 77
2021-02-07 17:00:00 7.1 16 Sudeste 40 Sudeste 1 -- -- 84
2021-02-07 16:00:00 7.2 17 Sudeste 32 Sudeste 0.6 -- -- 81
2021-02-07 15:00:00 7.8 3 Sudeste 17 Este 0 -- -- 82
2021-02-07 14:00:00 8 2 Sur 9 Sudoeste 0 -- -- 71
2021-02-07 13:00:00 7.5 4 Sudoeste 10 Noroeste 0 -- -- 82
2021-02-07 12:00:00 5.6 4 Norte 11 Oeste 0 -- -- 76
2021-02-07 11:00:00 4.5 0 Calma 7 Sudoeste 0 -- -- 88
2021-02-07 10:00:00 3.4 2 Sudeste 6 Este 0 -- -- 91
2021-02-07 09:00:00 2.2 2 Noroeste 5 Noroeste 0 -- -- 93
2021-02-07 08:00:00 1.4 0 Calma 11 Sur 0 -- -- 98
2021-02-07 07:00:00 0.9 0 Calma 7 Oeste 0 -- -- 98
2021-02-07 06:00:00 1 2 Norte 5 Nordeste 0.2 -- -- 99
2021-02-07 05:00:00 1.3 0 Calma 5 Oeste 0 -- -- 100
2021-02-07 04:00:00 1.5 2 Noroeste 6 Sur 0 -- -- 100
2021-02-07 03:00:00 1.7 4 Norte 7 Norte 0 -- -- 100
2021-02-07 02:00:00 2 0 Calma 5 Este 0 -- -- 100
2021-02-07 01:00:00 3.1 0 Calma 3 Norte 0 -- -- 96
2021-02-07 00:00:00 3.9 0 Calma 6 Sudeste 0 -- -- 97
2021-02-06 23:00:00 4.2 4 Sudeste 6 Este 1.2 -- -- 98
2021-02-06 22:00:00 4.4 2 Sur 8 Sudeste 0 -- -- 97
2021-02-06 21:00:00 4.7 3 Nordeste 5 Sudeste 0.6 -- -- 98
2021-02-06 20:00:00 4.9 3 Norte 6 Norte 1 -- -- 98
2021-02-06 19:00:00 5.2 2 Este 8 Nordeste 0.6 -- -- 98
2021-02-06 18:00:00 5.8 0 Calma 4 Oeste 0.2 -- -- 97
2021-02-06 17:00:00 5.9 3 Oeste 16 Oeste 1.4 -- -- 96
2021-02-06 16:00:00 6.5 4 Noroeste 14 Noroeste 2.4 -- -- 97
2021-02-06 15:00:00 6.9 3 Oeste 14 Noroeste 1.8 -- -- 99
2021-02-06 14:00:00 6.9 2 Sudoeste 15 Noroeste 2.8 -- -- 99
2021-02-06 13:00:00 6.9 3 Oeste 9 Oeste 2 -- -- 98
2021-02-06 12:00:00 6.6 3 Noroeste 7 Oeste 1.8 -- -- 97
2021-02-06 11:00:00 6.4 0 Calma 6 Sudoeste 1.4 -- -- 100
2021-02-06 10:00:00 6.4 4 Sudoeste 8 Sudoeste 2.2 -- -- 100
2021-02-06 09:00:00 6.3 0 Calma 4 Norte 2.4 -- -- 100
2021-02-06 08:00:00 6.2 2 Sudeste 10 Sudoeste 1.8 -- -- 100
2021-02-06 07:00:00 6.4 8 Oeste 17 Sudoeste 1.4 -- -- 100
2021-02-06 06:00:00 6.5 9 Oeste 21 Oeste 4.8 -- -- 100
2021-02-06 05:00:00 6.7 9 Oeste 24 Oeste 4.6 -- -- 100
2021-02-06 04:00:00 7.2 10 Oeste 23 Oeste 2.6 -- -- 100
2021-02-06 03:00:00 7.4 4 Sudoeste 22 Oeste 1 -- -- 100
2021-02-06 02:00:00 7.5 10 Oeste 22 Sudoeste 3.2 -- -- 100
2021-02-06 01:00:00 7.7 6 Oeste 17 Noroeste 3.6 -- -- 100
2021-02-06 00:00:00 7.8 3 Sudoeste 12 Oeste 4.6 -- -- 100
2021-02-05 23:00:00 7.8 5 Oeste 12 Oeste 5.4 -- -- 100
2021-02-05 22:00:00 7.6 0 Calma 5 Oeste 2.8 -- -- 100
2021-02-05 21:00:00 7.6 0 Calma 2 Nordeste 0.8 -- -- 99
2021-02-05 20:00:00 7.6 0 Calma 2 Sudeste 0.8 -- -- 99
2021-02-05 19:00:00 7.7 0 Calma 3 Noroeste 1.2 -- -- 99
2021-02-05 18:00:00 7.9 0 Calma 2 Noroeste 0.8 -- -- 97
2021-02-05 17:00:00 8.2 0 Calma 3 Sudoeste 0.4 -- -- 97
2021-02-05 16:00:00 8.5 0 Calma 6 Oeste 0.4 -- -- 98
2021-02-05 15:00:00 8.4 0 Calma 4 Sudoeste 1.2 -- -- 96
2021-02-05 14:00:00 8.3 0 Calma 3 Sudoeste 2 -- -- 99
2021-02-05 13:00:00 8.1 0 Calma 4 Nordeste 1.2 -- -- 98
2021-02-05 12:00:00 7.9 0 Calma 4 Sur 1.2 -- -- 100
2021-02-05 11:00:00 7.7 0 Calma 4 Norte 2 -- -- 99
2021-02-05 10:00:00 7.7 0 Calma 2 Norte 1.6 -- -- 99
2021-02-05 09:00:00 7.6 2 Norte 5 Oeste 0.2 -- -- 99
2021-02-05 08:00:00 7.6 0 Calma 2 Sudoeste 0.2 -- -- 99
2021-02-05 07:00:00 7.6 0 Calma 2 Sur 0 -- -- 99
2021-02-05 06:00:00 7.6 0 Calma 4 Nordeste 0.4 -- -- 99
2021-02-05 05:00:00 7.7 0 Calma 3 Sudoeste 0.2 -- -- 98
2021-02-05 04:00:00 7.7 0 Calma 6 Norte 0 -- -- 97
2021-02-05 03:00:00 7.7 0 Calma 4 Sudoeste 0 -- -- 98
2021-02-05 02:00:00 7.5 0 Calma 4 Sudoeste 0 -- -- 97
2021-02-05 01:00:00 7.6 0 Calma 5 Noroeste 0 -- -- 97
2021-02-05 00:00:00 7.8 2 Norte 5 Noroeste 0 -- -- 97
2021-02-04 23:00:00 7.7 0 Calma 4 Este 0.2 -- -- 97
2021-02-04 22:00:00 8.7 0 Calma 4 Sudoeste 0 -- -- 94
2021-02-04 21:00:00 9 0 Calma 4 Este 0 -- -- 90
2021-02-04 20:00:00 8.7 0 Calma 5 Nordeste 0 -- -- 89
2021-02-04 19:00:00 9.5 2 Noroeste 6 Oeste 0 -- -- 85
2021-02-04 18:00:00 10.3 2 Sur 8 Nordeste 0 -- -- 81
2021-02-04 17:00:00 11 3 Sudoeste 9 Oeste 0 -- -- 76
2021-02-04 16:00:00 11.3 3 Sur 10 Oeste 0 -- -- 75
2021-02-04 15:00:00 11.5 2 Sudoeste 5 Oeste 0 -- -- 70
2021-02-04 14:00:00 11.6 3 Sur 7 Oeste 0 -- -- 68
2021-02-04 13:00:00 13.5 5 Sur 22 Sur 0 -- -- 54
2021-02-04 12:00:00 13.5 9 Sudeste 26 Sur 0 -- -- 48
2021-02-04 11:00:00 13.2 6 Sudeste 22 Sudeste 0 -- -- 51
2021-02-04 10:00:00 12.6 12 Sudeste 35 Sudeste 0 -- -- 52
2021-02-04 09:00:00 12.5 17 Sudeste 35 Sur 0 -- -- 52
2021-02-04 08:00:00 12.3 14 Sur 37 Sudoeste 0 -- -- 53
2021-02-04 07:00:00 11.9 14 Sur 31 Sudoeste 0 -- -- 55
2021-02-04 06:00:00 12.1 11 Sudeste 33 Sudeste 0 -- -- 55
2021-02-04 05:00:00 12.2 13 Sudeste 31 Este 0 -- -- 54
2021-02-04 04:00:00 12.8 17 Sudeste 28 Sudeste 0 -- -- 53
2021-02-04 03:00:00 11.3 9 Sudeste 18 Este 0 -- -- 59
2021-02-04 02:00:00 11.2 6 Sur 23 Sur 0 -- -- 64
2021-02-04 01:00:00 12.3 14 Sudeste 28 Sudeste 0 -- -- 59
2021-02-04 00:00:00 9.9 3 Sur 19 Oeste 0 -- -- 75
2021-02-03 23:00:00 9.1 6 Nordeste 12 Este 0 -- -- 78
2021-02-03 22:00:00 7.8 3 Norte 7 Norte 0 -- -- 87
2021-02-03 21:00:00 8.5 3 Noroeste 8 Noroeste 0 -- -- 84
2021-02-03 20:00:00 9.2 2 Norte 5 Norte 0 -- -- 82
2021-02-03 19:00:00 11.3 2 Nordeste 5 Este 0 -- -- 76
2021-02-03 18:00:00 14.3 3 Oeste 17 Sudeste 0 -- -- 67
2021-02-03 17:00:00 15.9 10 Sudeste 26 Sudeste 0.2 -- -- 44
2021-02-03 16:00:00 16.7 13 Sudeste 33 Sur 0 -- -- 39
2021-02-03 15:00:00 18.5 17 Sudeste 39 Sur 0 -- -- 37
2021-02-03 14:00:00 18.1 15 Sudeste 36 Este 0 -- -- 36
2021-02-03 13:00:00 17.8 16 Sudeste 36 Sudeste 0 -- -- 36
2021-02-03 12:00:00 17.2 18 Sudeste 33 Sudeste 0 -- -- 40
2021-02-03 11:00:00 15.6 15 Sudeste 31 Este 0 -- -- 44
2021-02-03 10:00:00 11.2 4 Sur 13 Oeste 0 -- -- 72
2021-02-03 09:00:00 10 4 Noroeste 17 Oeste 0 -- -- 89
2021-02-03 08:00:00 11.3 4 Nordeste 14 Sur 0 -- -- 79
2021-02-03 07:00:00 11.2 2 Nordeste 9 Noroeste 0 -- -- 89
2021-02-03 06:00:00 11.8 3 Nordeste 23 Sudeste 0.2 -- -- 86
2021-02-03 05:00:00 14.1 18 Sudeste 35 Este 0 -- -- 71
2021-02-03 04:00:00 15.4 22 Sudeste 44 Sudeste 0 -- -- 61
2021-02-03 03:00:00 15.5 22 Sudeste 48 Sudeste 0 -- -- 59
2021-02-03 02:00:00 15.4 25 Sudeste 54 Sudeste 0 -- -- 59
2021-02-03 01:00:00 15.3 32 Sudeste 64 Sudeste 0 -- -- 60
2021-02-03 00:00:00 15.3 31 Sudeste 57 Sudeste 0 -- -- 60
2021-02-02 23:00:00 15.7 29 Sudeste 51 Este 0 -- -- 58
2021-02-02 22:00:00 15 26 Sudeste 48 Este 0 -- -- 61
2021-02-02 21:00:00 15.1 23 Sudeste 41 Sudeste 0 -- -- 61
2021-02-02 20:00:00 15 12 Sudeste 38 Sudoeste 0 -- -- 59
2021-02-02 19:00:00 15.9 15 Sudeste 55 Sur 0 -- -- 56
2021-02-02 18:00:00 16.1 18 Sudeste 56 Sur 0 -- -- 57
2021-02-02 17:00:00 17 28 Sur 47 Sudeste 0 -- -- 55
2021-02-02 16:00:00 19.1 26 Sudeste 54 Sur 0 -- -- 49
2021-02-02 15:00:00 16.2 26 Sudeste 59 Sur 0.2 -- -- 58
2021-02-02 14:00:00 14.8 24 Sur 50 Sudeste 0 -- -- 65
2021-02-02 13:00:00 17.2 24 Sudeste 43 Sudeste 0 -- -- 53
2021-02-02 12:00:00 17.6 21 Sudeste 54 Este 0 -- -- 51
2021-02-02 11:00:00 16.1 27 Sudeste 54 Sudeste 0 -- -- 55
2021-02-02 10:00:00 16 23 Sudeste 58 Sudeste 0 -- -- 54
2021-02-02 09:00:00 16.2 30 Sudeste 55 Sur 0 -- -- 52
2021-02-02 08:00:00 16.1 24 Sudeste 52 Sudeste 0 -- -- 53
2021-02-02 07:00:00 16 24 Sudeste 46 Sudeste 0 -- -- 53
2021-02-02 06:00:00 16.2 31 Sudeste 49 Sudeste 0 -- -- 51
2021-02-02 05:00:00 16 21 Sudeste 46 Este 0 -- -- 53
2021-02-02 04:00:00 15.7 15 Sudeste 30 Sudeste 0 -- -- 56
2021-02-02 03:00:00 16 14 Sudeste 36 Este 0 -- -- 54
2021-02-02 02:00:00 15.6 17 Sudeste 36 Sur 0 -- -- 57
2021-02-02 01:00:00 15.7 14 Sudeste 37 Este 0 -- -- 57
2021-02-02 00:00:00 15.5 17 Sudeste 43 Sur 0 -- -- 58
2021-02-01 23:00:00 16.1 18 Sudeste 38 Este 0 -- -- 55
2021-02-01 22:00:00 16.5 21 Sudeste 37 Sudeste 0 -- -- 54
2021-02-01 21:00:00 15.4 9 Sudeste 23 Este 0 -- -- 58
2021-02-01 20:00:00 13.3 3 Noroeste 10 Noroeste 0 -- -- 65
2021-02-01 19:00:00 16.3 4 Noroeste 14 Sur 0 -- -- 54
2021-02-01 18:00:00 17.4 3 Norte 12 Norte 0 -- -- 50
2021-02-01 17:00:00 17.3 2 Sudeste 11 Sur 0 -- -- 53
2021-02-01 16:00:00 17.5 4 Norte 14 Sudeste 0 -- -- 52
2021-02-01 15:00:00 18.5 5 Sur 24 Oeste 0 -- -- 41
2021-02-01 14:00:00 19.4 8 Oeste 30 Oeste 0 -- -- 41
2021-02-01 13:00:00 19 7 Oeste 22 Sudoeste 0 -- -- 47
2021-02-01 12:00:00 17.7 5 Nordeste 31 Oeste 0 -- -- 53
2021-02-01 11:00:00 17.2 8 Norte 30 Oeste 0 -- -- 54
2021-02-01 10:00:00 17 9 Norte 39 Oeste 0 -- -- 52
2021-02-01 09:00:00 13.8 9 Nordeste 31 Nordeste 0 -- -- 51
2021-02-01 08:00:00 11.9 6 Este 21 Sudoeste 0 -- -- 51
2021-02-01 07:00:00 10.7 5 Nordeste 20 Nordeste 0 -- -- 54
2021-02-01 06:00:00 11.1 7 Nordeste 18 Sudoeste 0 -- -- 55
2021-02-01 05:00:00 10.9 6 Nordeste 16 Noroeste 0 -- -- 59
2021-02-01 04:00:00 11.4 4 Nordeste 20 Noroeste 0 -- -- 57
2021-02-01 03:00:00 14.4 9 Oeste 36 Noroeste 0 -- -- 47
2021-02-01 02:00:00 14.7 10 Oeste 37 Oeste 0 -- -- 47
2021-02-01 01:00:00 14.9 9 Sudeste 49 Oeste 0 -- -- 47
2021-02-01 00:00:00 15.1 8 Sur 52 Noroeste 0 -- -- 46
2021-01-31 23:00:00 15.5 11 Norte 48 Oeste 0 -- -- 43
2021-01-31 22:00:00 15.8 11 Sudoeste 39 Noroeste 0 -- -- 44
2021-01-31 21:00:00 16.5 9 Sudeste 28 Norte 0 -- -- 43
2021-01-31 20:00:00 17.5 7 Sudoeste 31 Oeste 0 -- -- 38
2021-01-31 19:00:00 18.2 14 Sur 38 Sur 0 -- -- 37
2021-01-31 18:00:00 19.3 6 Noroeste 37 Sudoeste 0 -- -- 32
2021-01-31 17:00:00 21.2 9 Sur 37 Sudoeste 0 -- -- 31
2021-01-31 16:00:00 20.9 12 Sudeste 36 Este 0 -- -- 34
2021-01-31 15:00:00 20.5 10 Sudoeste 30 Sudoeste 0 -- -- 40
2021-01-31 14:00:00 20.3 7 Sur 14 Sur 0 -- -- 46
2021-01-31 13:00:00 19.7 5 Sur 14 Sudeste 0 -- -- 58
2021-01-31 12:00:00 16.9 5 Este 18 Sudoeste 0 -- -- 64
2021-01-31 11:00:00 13.1 7 Este 20 Oeste 0 -- -- 82
2021-01-31 10:00:00 10.3 8 Sudeste 26 Sudeste 0.2 -- -- 91
2021-01-31 09:00:00 10.4 5 Sudeste 34 Sudeste 0 -- -- 83
2021-01-31 08:00:00 10.5 14 Sur 32 Sudeste 0 -- -- 77
2021-01-31 07:00:00 10.7 7 Este 17 Sudeste 0 -- -- 62
2021-01-31 06:00:00 10.8 3 Sur 19 Oeste 0 -- -- 59
2021-01-31 05:00:00 11.4 7 Este 15 Nordeste 0 -- -- 52
2021-01-31 04:00:00 10.2 3 Noroeste 29 Norte 0 -- -- 61
2021-01-31 03:00:00 11 6 Norte 37 Oeste 0 -- -- 59
2021-01-31 02:00:00 10.8 5 Oeste 28 Oeste 0 -- -- 65
2021-01-31 01:00:00 10.8 8 Nordeste 33 Oeste 0 -- -- 64
2021-01-31 00:00:00 10.9 10 Noroeste 45 Oeste 0 -- -- 63
2021-01-30 23:00:00 10.2 5 Oeste 26 Noroeste 0 -- -- 65
2021-01-30 22:00:00 10.1 10 Sudeste 23 Sur 0 -- -- 64
2021-01-30 21:00:00 10.7 6 Noroeste 21 Oeste 0 -- -- 59
2021-01-30 20:00:00 10.5 4 Nordeste 22 Sur 0 -- -- 57
2021-01-30 19:00:00 10.5 7 Sur 24 Sur 0 -- -- 59
2021-01-30 18:00:00 10.4 4 Norte 15 Sudeste 0 -- -- 64
2021-01-30 17:00:00 10.5 6 Sur 26 Sudoeste 0 -- -- 68
2021-01-30 16:00:00 10.8 9 Sudeste 30 Sudoeste 0 -- -- 65
2021-01-30 15:00:00 10.7 9 Oeste 27 Oeste 0 -- -- 68
2021-01-30 14:00:00 11 6 Sudoeste 30 Noroeste 0 -- -- 62
2021-01-30 13:00:00 11.6 9 Oeste 32 Oeste 0 -- -- 59
2021-01-30 12:00:00 11.7 3 Noroeste 16 Norte 0 -- -- 63
2021-01-30 11:00:00 10.3 4 Nordeste 20 Noroeste 0 -- -- 85
2021-01-30 10:00:00 9.1 4 Este 8 Nordeste 0 -- -- 78
2021-01-30 09:00:00 7.7 3 Oeste 15 Noroeste 0 -- -- 89
2021-01-30 08:00:00 9 5 Oeste 12 Este 0 -- -- 85
2021-01-30 07:00:00 9 3 Este 15 Sudoeste 0 -- -- 89
2021-01-30 06:00:00 9.4 0 Calma 12 Nordeste 0 -- -- 92
2021-01-30 05:00:00 10 3 Noroeste 7 Nordeste 0 -- -- 92
2021-01-30 04:00:00 10.8 5 Nordeste 28 Sudeste 0 -- -- 89
2021-01-30 03:00:00 11.5 22 Sudeste 48 Sudeste 3 -- -- 89
2021-01-30 02:00:00 12.9 3 Norte 24 Sur 0.2 -- -- 81
2021-01-30 01:00:00 16.1 16 Sur 37 Sudeste 0 -- -- 58
2021-01-30 00:00:00 16.2 19 Sudeste 48 Sudeste 0 -- -- 59